sensor_id;sensor_type;location;lat;lon;timestamp;pressure;altitude;pressure_sealevel;temperature;humidity
12963;BME280;6546;49.882;8.666;2023-05-24T00:01:50;100520.78;;;13.55;55.50
12963;BME280;6546;49.882;8.666;2023-05-24T00:04:16;100518.50;;;13.52;55.87
12963;BME280;6546;49.882;8.666;2023-05-24T00:06:44;100515.91;;;13.52;55.89
12963;BME280;6546;49.882;8.666;2023-05-24T00:09:12;100518.19;;;13.47;55.90
12963;BME280;6546;49.882;8.666;2023-05-24T00:11:39;100520.13;;;13.53;55.76
12963;BME280;6546;49.882;8.666;2023-05-24T00:14:07;100517.06;;;13.50;55.77
12963;BME280;6546;49.882;8.666;2023-05-24T00:16:33;100519.81;;;13.48;55.64
12963;BME280;6546;49.882;8.666;2023-05-24T00:19:01;100514.47;;;13.42;55.67
12963;BME280;6546;49.882;8.666;2023-05-24T00:21:28;100511.72;;;13.43;55.73
12963;BME280;6546;49.882;8.666;2023-05-24T00:23:54;100502.63;;;13.39;55.47
12963;BME280;6546;49.882;8.666;2023-05-24T00:26:21;100508.34;;;13.35;55.32
12963;BME280;6546;49.882;8.666;2023-05-24T00:28:48;100499.16;;;13.16;55.96
12963;BME280;6546;49.882;8.666;2023-05-24T00:31:16;100495.91;;;13.14;55.79
12963;BME280;6546;49.882;8.666;2023-05-24T00:33:42;100490.72;;;13.14;56.21
12963;BME280;6546;49.882;8.666;2023-05-24T00:36:09;100501.75;;;13.16;56.09
12963;BME280;6546;49.882;8.666;2023-05-24T00:38:36;100503.38;;;13.17;56.26
12963;BME280;6546;49.882;8.666;2023-05-24T00:41:02;100495.44;;;13.10;56.38
12963;BME280;6546;49.882;8.666;2023-05-24T00:43:29;100500.78;;;13.01;56.74
12963;BME280;6546;49.882;8.666;2023-05-24T00:46:11;100499.81;;;13.10;56.61
12963;BME280;6546;49.882;8.666;2023-05-24T00:48:41;100491.34;;;13.08;56.46
12963;BME280;6546;49.882;8.666;2023-05-24T00:51:08;100498.50;;;13.06;56.29
12963;BME280;6546;49.882;8.666;2023-05-24T00:53:35;100493.00;;;13.01;56.40
12963;BME280;6546;49.882;8.666;2023-05-24T00:56:02;100489.78;;;12.91;56.57
12963;BME280;6546;49.882;8.666;2023-05-24T00:58:29;100498.53;;;12.90;56.71
12963;BME280;6546;49.882;8.666;2023-05-24T01:00:58;100505.22;;;12.84;56.61
12963;BME280;6546;49.882;8.666;2023-05-24T01:03:25;100493.38;;;12.74;56.97
12963;BME280;6546;49.882;8.666;2023-05-24T01:05:55;100503.63;;;12.67;57.12
12963;BME280;6546;49.882;8.666;2023-05-24T01:08:35;100505.91;;;12.62;57.05
12963;BME280;6546;49.882;8.666;2023-05-24T01:11:06;100503.47;;;12.60;57.07
12963;BME280;6546;49.882;8.666;2023-05-24T01:13:43;100506.06;;;12.60;56.99
12963;BME280;6546;49.882;8.666;2023-05-24T01:16:15;100509.31;;;12.54;57.22
12963;BME280;6546;49.882;8.666;2023-05-24T01:18:46;100500.09;;;12.44;57.30
12963;BME280;6546;49.882;8.666;2023-05-24T01:21:31;100513.69;;;12.54;57.51
12963;BME280;6546;49.882;8.666;2023-05-24T01:24:12;100520.19;;;12.42;57.95
12963;BME280;6546;49.882;8.666;2023-05-24T01:29:15;100515.81;;;12.26;58.33
12963;BME280;6546;49.882;8.666;2023-05-24T01:31:41;100518.91;;;12.30;58.14
12963;BME280;6546;49.882;8.666;2023-05-24T01:34:08;100523.28;;;12.29;58.17
12963;BME280;6546;49.882;8.666;2023-05-24T01:36:35;100508.81;;;12.19;58.29
12963;BME280;6546;49.882;8.666;2023-05-24T01:39:01;100513.22;;;12.18;58.50
12963;BME280;6546;49.882;8.666;2023-05-24T01:41:36;100510.94;;;12.23;58.50
12963;BME280;6546;49.882;8.666;2023-05-24T01:44:10;100508.69;;;12.20;58.07
12963;BME280;6546;49.882;8.666;2023-05-24T01:46:40;100507.06;;;12.11;58.55
12963;BME280;6546;49.882;8.666;2023-05-24T01:49:17;100500.56;;;12.07;58.36
12963;BME280;6546;49.882;8.666;2023-05-24T01:51:48;100512.06;;;12.13;58.39
12963;BME280;6546;49.882;8.666;2023-05-24T01:54:19;100503.47;;;12.04;58.48
12963;BME280;6546;49.882;8.666;2023-05-24T01:56:47;100496.34;;;12.14;58.37
12963;BME280;6546;49.882;8.666;2023-05-24T01:59:14;100499.75;;;12.15;58.15
12963;BME280;6546;49.882;8.666;2023-05-24T02:01:42;100499.75;;;12.06;58.01
12963;BME280;6546;49.882;8.666;2023-05-24T02:04:09;100504.13;;;12.06;58.20
12963;BME280;6546;49.882;8.666;2023-05-24T02:06:35;100507.22;;;12.01;58.40
12963;BME280;6546;49.882;8.666;2023-05-24T02:09:02;100509.81;;;12.01;58.22
12963;BME280;6546;49.882;8.666;2023-05-24T02:11:29;100513.38;;;12.00;58.30
12963;BME280;6546;49.882;8.666;2023-05-24T02:13:55;100507.84;;;12.03;58.59
12963;BME280;6546;49.882;8.666;2023-05-24T02:16:22;100511.25;;;12.04;58.43
12963;BME280;6546;49.882;8.666;2023-05-24T02:18:50;100508.34;;;12.07;58.31
12963;BME280;6546;49.882;8.666;2023-05-24T02:21:16;100509.31;;;12.06;58.33
12963;BME280;6546;49.882;8.666;2023-05-24T02:23:43;100512.22;;;12.03;58.41
12963;BME280;6546;49.882;8.666;2023-05-24T02:26:10;100510.94;;;12.07;58.21
12963;BME280;6546;49.882;8.666;2023-05-24T02:28:37;100516.59;;;12.02;58.27
12963;BME280;6546;49.882;8.666;2023-05-24T02:31:04;100515.31;;;12.06;58.53
12963;BME280;6546;49.882;8.666;2023-05-24T02:33:31;100522.59;;;11.95;58.38
12963;BME280;6546;49.882;8.666;2023-05-24T02:35:59;100521.97;;;12.01;58.65
12963;BME280;6546;49.882;8.666;2023-05-24T02:38:25;100514.66;;;11.96;58.32
12963;BME280;6546;49.882;8.666;2023-05-24T02:40:52;100516.78;;;12.01;58.32
12963;BME280;6546;49.882;8.666;2023-05-24T02:43:19;100520.00;;;11.95;58.40
12963;BME280;6546;49.882;8.666;2023-05-24T02:45:45;100522.59;;;11.87;58.26
12963;BME280;6546;49.882;8.666;2023-05-24T02:48:12;100516.44;;;11.88;58.32
12963;BME280;6546;49.882;8.666;2023-05-24T02:50:38;100513.84;;;11.96;57.81
12963;BME280;6546;49.882;8.666;2023-05-24T02:53:06;100525.19;;;12.03;58.02
12963;BME280;6546;49.882;8.666;2023-05-24T02:55:33;100515.78;;;12.02;57.58
12963;BME280;6546;49.882;8.666;2023-05-24T02:57:59;100511.25;;;12.04;57.43
12963;BME280;6546;49.882;8.666;2023-05-24T03:00:27;100523.75;;;12.08;57.76
12963;BME280;6546;49.882;8.666;2023-05-24T03:02:53;100511.25;;;12.04;57.79
12963;BME280;6546;49.882;8.666;2023-05-24T03:05:21;100513.19;;;12.02;57.79
12963;BME280;6546;49.882;8.666;2023-05-24T03:07:48;100511.91;;;11.98;58.15
12963;BME280;6546;49.882;8.666;2023-05-24T03:10:16;100504.78;;;12.08;58.01
12963;BME280;6546;49.882;8.666;2023-05-24T03:12:43;100498.63;;;12.01;57.72
12963;BME280;6546;49.882;8.666;2023-05-24T03:15:09;100517.94;;;12.15;57.60
12963;BME280;6546;49.882;8.666;2023-05-24T03:17:36;100514.50;;;12.06;57.60
12963;BME280;6546;49.882;8.666;2023-05-24T03:20:03;100510.59;;;12.02;57.14
12963;BME280;6546;49.882;8.666;2023-05-24T03:22:30;100509.63;;;12.03;57.18
12963;BME280;6546;49.882;8.666;2023-05-24T03:24:57;100508.31;;;11.91;57.10
12963;BME280;6546;49.882;8.666;2023-05-24T03:27:25;100515.59;;;11.87;57.22
12963;BME280;6546;49.882;8.666;2023-05-24T03:29:51;100518.06;;;11.89;56.99
12963;BME280;6546;49.882;8.666;2023-05-24T03:32:18;100511.38;;;11.78;56.56
12963;BME280;6546;49.882;8.666;2023-05-24T03:34:44;100520.31;;;11.84;56.75
12963;BME280;6546;49.882;8.666;2023-05-24T03:37:11;100521.59;;;11.80;56.82
12963;BME280;6546;49.882;8.666;2023-05-24T03:39:37;100514.78;;;11.87;56.44
12963;BME280;6546;49.882;8.666;2023-05-24T03:42:04;100517.63;;;11.68;56.89
12963;BME280;6546;49.882;8.666;2023-05-24T03:44:32;100526.06;;;11.70;56.93
12963;BME280;6546;49.882;8.666;2023-05-24T03:46:59;100520.63;;;11.73;56.93
12963;BME280;6546;49.882;8.666;2023-05-24T03:49:26;100522.63;;;11.61;56.78
12963;BME280;6546;49.882;8.666;2023-05-24T03:51:52;100518.13;;;11.63;56.83
12963;BME280;6546;49.882;8.666;2023-05-24T03:54:19;100528.00;;;11.68;57.07
12963;BME280;6546;49.882;8.666;2023-05-24T03:56:45;100533.19;;;11.59;56.82
12963;BME280;6546;49.882;8.666;2023-05-24T03:59:12;100522.31;;;11.64;56.85
12963;BME280;6546;49.882;8.666;2023-05-24T04:01:39;100520.53;;;11.56;56.80
12963;BME280;6546;49.882;8.666;2023-05-24T04:04:06;100518.91;;;11.64;56.82
12963;BME280;6546;49.882;8.666;2023-05-24T04:06:32;100524.41;;;11.60;55.90
12963;BME280;6546;49.882;8.666;2023-05-24T04:09:01;100528.19;;;11.66;56.15
12963;BME280;6546;49.882;8.666;2023-05-24T04:11:29;100530.09;;;11.64;56.25
12963;BME280;6546;49.882;8.666;2023-05-24T04:13:57;100531.25;;;11.62;56.20
12963;BME280;6546;49.882;8.666;2023-05-24T04:16:25;100528.31;;;11.56;55.90
12963;BME280;6546;49.882;8.666;2023-05-24T04:18:55;100529.97;;;11.66;55.91
12963;BME280;6546;49.882;8.666;2023-05-24T04:21:22;100530.31;;;11.71;55.92
12963;BME280;6546;49.882;8.666;2023-05-24T04:23:48;100538.13;;;11.79;55.69
12963;BME280;6546;49.882;8.666;2023-05-24T04:26:15;100518.59;;;11.67;54.99
12963;BME280;6546;49.882;8.666;2023-05-24T04:28:42;100535.50;;;11.71;55.36
12963;BME280;6546;49.882;8.666;2023-05-24T04:31:09;100531.41;;;11.68;55.07
12963;BME280;6546;49.882;8.666;2023-05-24T04:33:36;100532.91;;;11.71;55.30
12963;BME280;6546;49.882;8.666;2023-05-24T04:36:05;100537.38;;;11.60;55.14
12963;BME280;6546;49.882;8.666;2023-05-24T04:38:32;100534.91;;;11.51;55.59
12963;BME280;6546;49.882;8.666;2023-05-24T04:41:00;100534.41;;;11.47;55.57
12963;BME280;6546;49.882;8.666;2023-05-24T04:43:27;100536.03;;;11.40;55.65
12963;BME280;6546;49.882;8.666;2023-05-24T04:45:54;100537.94;;;11.38;56.03
12963;BME280;6546;49.882;8.666;2023-05-24T04:48:20;100537.56;;;11.25;56.21
12963;BME280;6546;49.882;8.666;2023-05-24T04:50:50;100547.44;;;11.22;56.38
12963;BME280;6546;49.882;8.666;2023-05-24T04:53:18;100543.84;;;11.15;56.61
12963;BME280;6546;49.882;8.666;2023-05-24T04:55:45;100542.44;;;11.28;56.42
12963;BME280;6546;49.882;8.666;2023-05-24T04:58:12;100541.78;;;11.26;56.46
12963;BME280;6546;49.882;8.666;2023-05-24T05:00:38;100539.03;;;11.28;56.31
12963;BME280;6546;49.882;8.666;2023-05-24T05:03:06;100547.28;;;11.23;56.23
12963;BME280;6546;49.882;8.666;2023-05-24T05:05:33;100553.47;;;11.30;56.26
12963;BME280;6546;49.882;8.666;2023-05-24T05:08:00;100544.84;;;11.22;56.62
12963;BME280;6546;49.882;8.666;2023-05-24T05:10:28;100552.78;;;11.20;56.81
12963;BME280;6546;49.882;8.666;2023-05-24T05:12:55;100551.22;;;11.01;56.96
12963;BME280;6546;49.882;8.666;2023-05-24T05:15:22;100553.00;;;11.01;57.46
12963;BME280;6546;49.882;8.666;2023-05-24T05:17:49;100563.25;;;11.11;57.02
12963;BME280;6546;49.882;8.666;2023-05-24T05:20:16;100568.78;;;11.16;57.35
12963;BME280;6546;49.882;8.666;2023-05-24T05:22:44;100565.06;;;11.18;56.74
12963;BME280;6546;49.882;8.666;2023-05-24T05:25:11;100571.84;;;11.11;56.57
12963;BME280;6546;49.882;8.666;2023-05-24T05:27:39;100568.63;;;11.17;56.59
12963;BME280;6546;49.882;8.666;2023-05-24T05:30:07;100575.09;;;11.13;56.59
12963;BME280;6546;49.882;8.666;2023-05-24T05:32:33;100582.66;;;11.32;56.29
12963;BME280;6546;49.882;8.666;2023-05-24T05:35:00;100575.44;;;11.18;56.71
12963;BME280;6546;49.882;8.666;2023-05-24T05:37:26;100575.66;;;11.58;55.67
12963;BME280;6546;49.882;8.666;2023-05-24T05:39:54;100578.03;;;11.86;54.50
12963;BME280;6546;49.882;8.666;2023-05-24T05:42:20;100573.06;;;12.00;53.39
12963;BME280;6546;49.882;8.666;2023-05-24T05:44:48;100582.00;;;12.22;53.01
12963;BME280;6546;49.882;8.666;2023-05-24T05:47:15;100575.50;;;12.18;52.60
12963;BME280;6546;49.882;8.666;2023-05-24T05:49:41;100574.41;;;12.21;53.09
12963;BME280;6546;49.882;8.666;2023-05-24T05:52:08;100579.75;;;12.11;52.56
12963;BME280;6546;49.882;8.666;2023-05-24T05:54:34;100583.63;;;12.07;53.39
12963;BME280;6546;49.882;8.666;2023-05-24T05:57:01;100580.69;;;12.18;53.20
12963;BME280;6546;49.882;8.666;2023-05-24T05:59:27;100592.41;;;12.38;52.00
12963;BME280;6546;49.882;8.666;2023-05-24T06:01:55;100597.63;;;12.30;52.56
12963;BME280;6546;49.882;8.666;2023-05-24T06:04:22;100595.34;;;12.27;52.31
12963;BME280;6546;49.882;8.666;2023-05-24T06:06:48;100592.03;;;13.38;51.19
12963;BME280;6546;49.882;8.666;2023-05-24T06:09:16;100588.84;;;16.06;43.58
12963;BME280;6546;49.882;8.666;2023-05-24T06:11:42;100580.66;;;18.36;38.16
12963;BME280;6546;49.882;8.666;2023-05-24T06:14:09;100587.72;;;19.91;34.35
12963;BME280;6546;49.882;8.666;2023-05-24T06:16:37;100602.94;;;20.21;33.09
12963;BME280;6546;49.882;8.666;2023-05-24T06:19:07;100592.91;;;21.35;31.08
12963;BME280;6546;49.882;8.666;2023-05-24T06:21:34;100582.47;;;21.94;29.97
12963;BME280;6546;49.882;8.666;2023-05-24T06:24:01;100599.59;;;22.86;27.87
12963;BME280;6546;49.882;8.666;2023-05-24T06:26:28;100602.84;;;21.15;30.61
12963;BME280;6546;49.882;8.666;2023-05-24T06:28:55;100597.81;;;21.07;30.98
12963;BME280;6546;49.882;8.666;2023-05-24T06:31:21;100591.47;;;22.05;29.37
12963;BME280;6546;49.882;8.666;2023-05-24T06:33:48;100595.56;;;22.84;28.41
12963;BME280;6546;49.882;8.666;2023-05-24T06:36:16;100591.63;;;22.75;27.66
12963;BME280;6546;49.882;8.666;2023-05-24T06:38:42;100603.59;;;22.77;27.77
12963;BME280;6546;49.882;8.666;2023-05-24T06:41:09;100600.94;;;23.47;26.92
12963;BME280;6546;49.882;8.666;2023-05-24T06:43:35;100601.56;;;22.38;27.74
12963;BME280;6546;49.882;8.666;2023-05-24T06:46:02;100602.41;;;22.20;28.65
12963;BME280;6546;49.882;8.666;2023-05-24T06:48:29;100610.13;;;22.04;28.86
12963;BME280;6546;49.882;8.666;2023-05-24T06:50:56;100606.56;;;21.98;29.17
12963;BME280;6546;49.882;8.666;2023-05-24T06:53:23;100617.38;;;21.42;29.57
12963;BME280;6546;49.882;8.666;2023-05-24T06:55:50;100616.06;;;20.59;31.50
12963;BME280;6546;49.882;8.666;2023-05-24T06:58:17;100602.50;;;20.55;31.94
12963;BME280;6546;49.882;8.666;2023-05-24T07:00:43;100595.75;;;20.03;32.47
12963;BME280;6546;49.882;8.666;2023-05-24T07:03:11;100599.56;;;20.45;31.54
12963;BME280;6546;49.882;8.666;2023-05-24T07:05:38;100599.28;;;21.09;31.25
12963;BME280;6546;49.882;8.666;2023-05-24T07:08:05;100608.31;;;20.88;30.67
12963;BME280;6546;49.882;8.666;2023-05-24T07:10:33;100603.97;;;19.75;32.39
12963;BME280;6546;49.882;8.666;2023-05-24T07:12:59;100597.03;;;19.04;33.79
12963;BME280;6546;49.882;8.666;2023-05-24T07:15:26;100601.91;;;18.80;35.56
12963;BME280;6546;49.882;8.666;2023-05-24T07:17:53;100596.69;;;18.67;35.07
12963;BME280;6546;49.882;8.666;2023-05-24T07:20:20;100591.78;;;18.31;35.69
12963;BME280;6546;49.882;8.666;2023-05-24T07:22:47;100601.91;;;18.54;35.17
12963;BME280;6546;49.882;8.666;2023-05-24T07:25:14;100604.44;;;18.15;35.83
12963;BME280;6546;49.882;8.666;2023-05-24T07:27:42;100602.66;;;17.68;36.62
12963;BME280;6546;49.882;8.666;2023-05-24T07:30:09;100602.81;;;16.70;38.02
12963;BME280;6546;49.882;8.666;2023-05-24T07:32:36;100605.84;;;16.16;40.27
12963;BME280;6546;49.882;8.666;2023-05-24T07:35:03;100598.50;;;15.69;41.49
12963;BME280;6546;49.882;8.666;2023-05-24T07:37:30;100600.53;;;15.45;41.83
12963;BME280;6546;49.882;8.666;2023-05-24T07:39:56;100601.94;;;15.03;43.62
12963;BME280;6546;49.882;8.666;2023-05-24T07:42:23;100607.75;;;15.28;42.84
12963;BME280;6546;49.882;8.666;2023-05-24T07:44:51;100605.16;;;15.57;41.72
12963;BME280;6546;49.882;8.666;2023-05-24T07:47:17;100607.59;;;15.59;41.55
12963;BME280;6546;49.882;8.666;2023-05-24T07:49:44;100610.53;;;15.85;41.63
12963;BME280;6546;49.882;8.666;2023-05-24T07:52:10;100602.41;;;15.95;40.14
12963;BME280;6546;49.882;8.666;2023-05-24T07:54:37;100623.50;;;15.79;41.13
12963;BME280;6546;49.882;8.666;2023-05-24T07:57:04;100620.91;;;15.49;41.08
12963;BME280;6546;49.882;8.666;2023-05-24T07:59:32;100630.50;;;15.34;41.39
12963;BME280;6546;49.882;8.666;2023-05-24T08:02:00;100630.41;;;15.28;41.15
12963;BME280;6546;49.882;8.666;2023-05-24T08:04:30;100632.69;;;14.93;42.67
12963;BME280;6546;49.882;8.666;2023-05-24T08:06:57;100630.75;;;15.10;41.97
12963;BME280;6546;49.882;8.666;2023-05-24T08:09:26;100639.16;;;14.97;42.45
12963;BME280;6546;49.882;8.666;2023-05-24T08:11:54;100638.13;;;14.38;43.92
12963;BME280;6546;49.882;8.666;2023-05-24T08:14:20;100633.41;;;14.11;45.14
12963;BME280;6546;49.882;8.666;2023-05-24T08:16:47;100634.91;;;14.28;45.28
12963;BME280;6546;49.882;8.666;2023-05-24T08:19:15;100633.13;;;14.29;44.64
12963;BME280;6546;49.882;8.666;2023-05-24T08:21:41;100620.22;;;14.43;44.44
12963;BME280;6546;49.882;8.666;2023-05-24T08:24:08;100631.56;;;14.73;43.62
12963;BME280;6546;49.882;8.666;2023-05-24T08:26:35;100632.94;;;14.61;43.28
12963;BME280;6546;49.882;8.666;2023-05-24T08:29:01;100636.13;;;14.48;44.02
12963;BME280;6546;49.882;8.666;2023-05-24T08:31:29;100637.25;;;14.54;42.67
12963;BME280;6546;49.882;8.666;2023-05-24T08:33:57;100628.84;;;14.66;41.44
12963;BME280;6546;49.882;8.666;2023-05-24T08:36:25;100636.13;;;14.71;41.44
12963;BME280;6546;49.882;8.666;2023-05-24T08:38:51;100632.91;;;14.84;41.86
12963;BME280;6546;49.882;8.666;2023-05-24T08:41:18;100630.84;;;15.02;40.90
12963;BME280;6546;49.882;8.666;2023-05-24T08:43:46;100617.88;;;14.48;42.69
12963;BME280;6546;49.882;8.666;2023-05-24T08:46:13;100636.81;;;14.65;43.45
12963;BME280;6546;49.882;8.666;2023-05-24T08:48:44;100641.97;;;14.19;43.84
12963;BME280;6546;49.882;8.666;2023-05-24T08:51:13;100635.75;;;13.98;44.22
12963;BME280;6546;49.882;8.666;2023-05-24T08:53:41;100630.94;;;13.79;44.05
12963;BME280;6546;49.882;8.666;2023-05-24T08:56:13;100639.56;;;14.10;43.91
12963;BME280;6546;49.882;8.666;2023-05-24T08:58:41;100628.94;;;14.19;43.58
12963;BME280;6546;49.882;8.666;2023-05-24T09:01:09;100631.31;;;14.37;43.44
12963;BME280;6546;49.882;8.666;2023-05-24T09:03:37;100631.78;;;14.86;42.18
12963;BME280;6546;49.882;8.666;2023-05-24T09:06:07;100632.06;;;15.06;41.72
12963;BME280;6546;49.882;8.666;2023-05-24T09:08:35;100624.81;;;15.16;41.82
12963;BME280;6546;49.882;8.666;2023-05-24T09:11:04;100624.56;;;15.40;41.68
12963;BME280;6546;49.882;8.666;2023-05-24T09:13:32;100611.19;;;15.58;41.59
12963;BME280;6546;49.882;8.666;2023-05-24T09:16:00;100617.81;;;15.90;41.22
12963;BME280;6546;49.882;8.666;2023-05-24T09:18:27;100617.78;;;15.54;41.87
12963;BME280;6546;49.882;8.666;2023-05-24T09:20:54;100618.69;;;15.09;42.32
12963;BME280;6546;49.882;8.666;2023-05-24T09:23:21;100623.84;;;14.80;43.44
12963;BME280;6546;49.882;8.666;2023-05-24T09:25:48;100625.66;;;14.56;44.57
12963;BME280;6546;49.882;8.666;2023-05-24T09:28:17;100621.25;;;14.34;45.74
12963;BME280;6546;49.882;8.666;2023-05-24T09:30:57;100621.94;;;14.20;45.69
12963;BME280;6546;49.882;8.666;2023-05-24T09:33:27;100627.34;;;14.49;46.31
12963;BME280;6546;49.882;8.666;2023-05-24T09:35:56;100629.97;;;14.87;45.88
12963;BME280;6546;49.882;8.666;2023-05-24T09:38:23;100624.34;;;14.98;44.41
12963;BME280;6546;49.882;8.666;2023-05-24T09:40:58;100628.84;;;15.04;46.30
12963;BME280;6546;49.882;8.666;2023-05-24T09:43:27;100629.56;;;14.98;42.98
12963;BME280;6546;49.882;8.666;2023-05-24T09:45:54;100625.53;;;15.10;42.15
12963;BME280;6546;49.882;8.666;2023-05-24T09:48:22;100626.72;;;14.85;42.45
12963;BME280;6546;49.882;8.666;2023-05-24T09:50:58;100629.81;;;14.65;42.90
12963;BME280;6546;49.882;8.666;2023-05-24T09:53:26;100629.13;;;14.49;43.22
12963;BME280;6546;49.882;8.666;2023-05-24T09:55:53;100621.56;;;14.31;43.01
12963;BME280;6546;49.882;8.666;2023-05-24T09:58:21;100627.22;;;14.43;43.23
12963;BME280;6546;49.882;8.666;2023-05-24T10:00:48;100618.09;;;14.84;42.66
12963;BME280;6546;49.882;8.666;2023-05-24T10:03:15;100621.78;;;14.90;41.71
12963;BME280;6546;49.882;8.666;2023-05-24T10:05:43;100619.84;;;14.69;42.47
12963;BME280;6546;49.882;8.666;2023-05-24T10:08:10;100617.03;;;14.56;42.18
12963;BME280;6546;49.882;8.666;2023-05-24T10:10:38;100615.34;;;14.63;42.76
12963;BME280;6546;49.882;8.666;2023-05-24T10:13:05;100595.56;;;14.91;42.15
12963;BME280;6546;49.882;8.666;2023-05-24T10:15:31;100609.50;;;15.13;41.86
12963;BME280;6546;49.882;8.666;2023-05-24T10:17:59;100606.56;;;15.45;41.21
12963;BME280;6546;49.882;8.666;2023-05-24T10:20:32;100607.03;;;15.34;41.05
12963;BME280;6546;49.882;8.666;2023-05-24T10:23:00;100614.25;;;14.95;41.18
12963;BME280;6546;49.882;8.666;2023-05-24T10:25:32;100617.13;;;14.85;40.69
12963;BME280;6546;49.882;8.666;2023-05-24T10:28:03;100613.66;;;14.70;41.62
12963;BME280;6546;49.882;8.666;2023-05-24T10:30:35;100598.97;;;14.92;42.11
12963;BME280;6546;49.882;8.666;2023-05-24T10:33:05;100609.19;;;15.45;41.63
12963;BME280;6546;49.882;8.666;2023-05-24T10:35:33;100609.19;;;15.74;40.97
12963;BME280;6546;49.882;8.666;2023-05-24T10:38:04;100614.53;;;15.66;40.81
12963;BME280;6546;49.882;8.666;2023-05-24T10:40:32;100606.53;;;15.53;41.04
12963;BME280;6546;49.882;8.666;2023-05-24T10:43:03;100609.44;;;15.21;40.85
12963;BME280;6546;49.882;8.666;2023-05-24T10:45:32;100598.38;;;15.19;40.80
12963;BME280;6546;49.882;8.666;2023-05-24T10:48:34;100601.88;;;15.26;40.97
12963;BME280;6546;49.882;8.666;2023-05-24T10:51:32;100597.59;;;15.48;40.97
12963;BME280;6546;49.882;8.666;2023-05-24T10:54:18;100592.13;;;15.93;40.84
12963;BME280;6546;49.882;8.666;2023-05-24T10:56:47;100590.50;;;16.07;39.85
12963;BME280;6546;49.882;8.666;2023-05-24T10:59:27;100587.84;;;15.71;38.70
12963;BME280;6546;49.882;8.666;2023-05-24T11:01:55;100579.31;;;15.48;40.43
12963;BME280;6546;49.882;8.666;2023-05-24T11:04:23;100578.16;;;15.65;39.96
12963;BME280;6546;49.882;8.666;2023-05-24T11:06:54;100581.38;;;15.82;40.41
12963;BME280;6546;49.882;8.666;2023-05-24T11:09:21;100580.00;;;15.86;39.25
12963;BME280;6546;49.882;8.666;2023-05-24T11:11:49;100577.69;;;15.76;40.38
12963;BME280;6546;49.882;8.666;2023-05-24T11:14:22;100567.09;;;15.63;40.17
12963;BME280;6546;49.882;8.666;2023-05-24T11:16:49;100575.97;;;15.68;40.60
12963;BME280;6546;49.882;8.666;2023-05-24T11:19:18;100579.13;;;15.79;39.78
12963;BME280;6546;49.882;8.666;2023-05-24T11:21:47;100570.16;;;15.66;39.31
12963;BME280;6546;49.882;8.666;2023-05-24T11:24:15;100568.28;;;15.60;39.63
12963;BME280;6546;49.882;8.666;2023-05-24T11:26:43;100566.47;;;15.97;39.13
12963;BME280;6546;49.882;8.666;2023-05-24T11:29:11;100578.00;;;16.02;38.76
12963;BME280;6546;49.882;8.666;2023-05-24T11:31:46;100575.09;;;15.61;37.90
12963;BME280;6546;49.882;8.666;2023-05-24T11:34:12;100568.19;;;15.54;39.13
12963;BME280;6546;49.882;8.666;2023-05-24T11:36:40;100560.22;;;15.77;39.49
12963;BME280;6546;49.882;8.666;2023-05-24T11:39:09;100564.22;;;15.94;39.48
12963;BME280;6546;49.882;8.666;2023-05-24T11:41:36;100552.41;;;15.77;39.88
12963;BME280;6546;49.882;8.666;2023-05-24T11:44:03;100562.84;;;15.77;40.22
12963;BME280;6546;49.882;8.666;2023-05-24T11:46:30;100560.69;;;16.01;40.45
12963;BME280;6546;49.882;8.666;2023-05-24T11:48:57;100559.66;;;16.17;39.28
12963;BME280;6546;49.882;8.666;2023-05-24T11:51:25;100565.50;;;16.40;39.78
12963;BME280;6546;49.882;8.666;2023-05-24T11:53:52;100555.03;;;16.19;38.68
12963;BME280;6546;49.882;8.666;2023-05-24T11:56:20;100564.38;;;16.07;38.03
12963;BME280;6546;49.882;8.666;2023-05-24T11:58:48;100560.09;;;15.85;37.67
12963;BME280;6546;49.882;8.666;2023-05-24T12:01:23;100562.56;;;15.86;37.01
12963;BME280;6546;49.882;8.666;2023-05-24T12:03:50;100556.69;;;15.84;37.58
12963;BME280;6546;49.882;8.666;2023-05-24T12:06:17;100551.88;;;16.02;38.10
12963;BME280;6546;49.882;8.666;2023-05-24T12:08:44;100548.69;;;16.07;38.55
12963;BME280;6546;49.882;8.666;2023-05-24T12:11:10;100556.78;;;16.12;36.92
12963;BME280;6546;49.882;8.666;2023-05-24T12:13:39;100545.31;;;15.92;36.95
12963;BME280;6546;49.882;8.666;2023-05-24T12:16:05;100546.97;;;16.14;37.04
12963;BME280;6546;49.882;8.666;2023-05-24T12:18:32;100541.25;;;16.25;37.30
12963;BME280;6546;49.882;8.666;2023-05-24T12:20:59;100530.88;;;16.38;37.33
12963;BME280;6546;49.882;8.666;2023-05-24T12:23:26;100539.22;;;16.48;36.71
12963;BME280;6546;49.882;8.666;2023-05-24T12:25:57;100536.59;;;16.48;37.32
12963;BME280;6546;49.882;8.666;2023-05-24T12:28:24;100536.97;;;16.45;37.20
12963;BME280;6546;49.882;8.666;2023-05-24T12:30:53;100541.47;;;16.30;36.14
12963;BME280;6546;49.882;8.666;2023-05-24T12:33:20;100531.81;;;16.09;36.42
12963;BME280;6546;49.882;8.666;2023-05-24T12:35:47;100534.19;;;16.04;36.22
12963;BME280;6546;49.882;8.666;2023-05-24T12:38:14;100543.69;;;15.91;36.09
12963;BME280;6546;49.882;8.666;2023-05-24T12:40:44;100530.84;;;15.89;37.75
12963;BME280;6546;49.882;8.666;2023-05-24T12:43:12;100542.59;;;16.00;38.51
12963;BME280;6546;49.882;8.666;2023-05-24T12:45:40;100535.13;;;15.97;37.73
12963;BME280;6546;49.882;8.666;2023-05-24T12:48:08;100543.16;;;15.95;38.30
12963;BME280;6546;49.882;8.666;2023-05-24T12:50:35;100547.56;;;15.95;39.17
12963;BME280;6546;49.882;8.666;2023-05-24T12:53:01;100548.47;;;15.87;38.86
12963;BME280;6546;49.882;8.666;2023-05-24T12:55:28;100538.31;;;15.77;38.19
12963;BME280;6546;49.882;8.666;2023-05-24T12:57:56;100527.50;;;15.81;38.18
12963;BME280;6546;49.882;8.666;2023-05-24T13:00:27;100529.97;;;15.67;37.34
12963;BME280;6546;49.882;8.666;2023-05-24T13:02:54;100519.44;;;15.75;36.68
12963;BME280;6546;49.882;8.666;2023-05-24T13:05:25;100519.25;;;15.77;36.02
12963;BME280;6546;49.882;8.666;2023-05-24T13:07:53;100512.81;;;15.94;36.76